createdAt,value
2022-12-13T00:01:46.935Z,30.20
2022-12-13T00:03:49.963Z,30.33
2022-12-13T00:05:54.512Z,31.63
2022-12-13T00:07:57.253Z,31.53
2022-12-13T00:09:59.963Z,31.37
2022-12-13T00:12:02.751Z,31.93
2022-12-13T00:14:05.523Z,31.67
2022-12-13T00:16:11.536Z,31.83
2022-12-13T00:18:15.701Z,32.73
2022-12-13T00:20:18.600Z,32.63
2022-12-13T00:22:21.542Z,30.70
2022-12-13T00:24:24.285Z,34.33
2022-12-13T00:26:29.774Z,32.17
2022-12-13T00:28:32.583Z,31.00
2022-12-13T00:30:35.683Z,31.90
2022-12-13T00:32:38.474Z,32.30
2022-12-13T00:34:42.715Z,31.63
2022-12-13T00:36:46.441Z,32.80
2022-12-13T00:39:00.076Z,31.37
2022-12-13T00:41:11.439Z,29.60
2022-12-13T00:43:14.586Z,32.47
2022-12-13T00:45:17.573Z,33.00
2022-12-13T00:47:22.122Z,31.70
2022-12-13T00:49:25.945Z,30.93
2022-12-13T00:51:32.438Z,31.87
2022-12-13T00:53:35.197Z,28.63
2022-12-13T00:55:41.521Z,30.23
2022-12-13T00:57:44.312Z,29.83
2022-12-13T00:59:46.993Z,30.27
2022-12-13T01:01:49.912Z,30.63
2022-12-13T01:03:53.990Z,31.83
2022-12-13T01:08:20.852Z,34.93
2022-12-13T01:10:23.581Z,31.80
2022-12-13T01:12:26.326Z,30.50
2022-12-13T01:14:29.349Z,29.70
2022-12-13T01:16:32.174Z,32.27
2022-12-13T01:18:35.180Z,31.10
2022-12-13T01:20:38.435Z,30.27
2022-12-13T01:22:41.299Z,32.43
2022-12-13T01:24:45.573Z,31.27
2022-12-13T01:26:48.818Z,30.17
2022-12-13T01:28:51.992Z,30.37
2022-12-13T01:30:56.598Z,30.13
2022-12-13T01:33:00.360Z,31.57
2022-12-13T01:35:03.091Z,30.20
2022-12-13T01:37:05.828Z,31.00
2022-12-13T01:39:15.111Z,29.40
2022-12-13T01:41:27.257Z,30.60
2022-12-13T01:43:51.062Z,30.07
2022-12-13T01:45:53.861Z,27.33
2022-12-13T01:48:01.268Z,29.83
2022-12-13T01:50:07.207Z,30.60
2022-12-13T01:52:14.350Z,29.67
2022-12-13T01:54:20.955Z,28.73
2022-12-13T01:56:31.194Z,29.63
2022-12-13T01:58:35.746Z,31.27
2022-12-13T02:00:40.835Z,31.03
2022-12-13T02:02:44.529Z,28.63
2022-12-13T02:04:54.369Z,29.30
2022-12-13T02:06:58.747Z,28.43
2022-12-13T02:09:02.343Z,28.07
2022-12-13T02:11:05.949Z,26.33
2022-12-13T02:13:10.136Z,27.73
2022-12-13T02:15:17.162Z,28.00
2022-12-13T02:17:26.551Z,26.60
2022-12-13T02:19:55.690Z,26.13
2022-12-13T02:22:10.067Z,27.80
2022-12-13T02:24:37.027Z,27.93
2022-12-13T02:26:55.454Z,24.67
2022-12-13T02:29:30.374Z,27.70
2022-12-13T02:31:42.110Z,27.83
2022-12-13T02:33:53.688Z,31.23
2022-12-13T02:36:10.367Z,28.03
2022-12-13T02:38:24.461Z,27.03
2022-12-13T02:40:31.003Z,26.70
2022-12-13T02:42:38.914Z,27.93
2022-12-13T02:44:46.127Z,27.07
2022-12-13T02:46:57.650Z,23.80
2022-12-13T02:49:02.455Z,25.80
2022-12-13T02:51:07.279Z,27.10
2022-12-13T02:53:12.059Z,26.20
2022-12-13T02:55:17.891Z,26.33
2022-12-13T02:57:32.388Z,27.03
2022-12-13T02:59:37.340Z,34.30
2022-12-13T03:01:50.514Z,26.53
2022-12-13T03:04:07.277Z,26.90
2022-12-13T03:06:33.609Z,26.10
2022-12-13T03:08:49.968Z,24.10
2022-12-13T03:11:05.216Z,27.63
2022-12-13T03:13:32.292Z,29.00
2022-12-13T03:15:40.203Z,28.53
2022-12-13T03:17:50.569Z,27.17
2022-12-13T03:19:55.589Z,28.00
2022-12-13T03:21:58.294Z,27.47
2022-12-13T03:24:01.413Z,29.17
2022-12-13T03:26:08.333Z,29.60
2022-12-13T03:28:12.380Z,28.33
2022-12-13T03:30:15.407Z,28.30
2022-12-13T03:32:18.094Z,28.87
2022-12-13T03:34:22.904Z,28.53
2022-12-13T03:36:28.054Z,28.63
2022-12-13T03:38:31.591Z,32.17
2022-12-13T03:40:35.068Z,27.80
2022-12-13T03:42:38.011Z,27.63
2022-12-13T03:44:40.670Z,28.67
2022-12-13T03:46:43.432Z,27.20
2022-12-13T03:48:46.150Z,29.60
2022-12-13T03:50:49.822Z,28.90
2022-12-13T03:52:59.529Z,29.57
2022-12-13T03:55:02.222Z,27.63
2022-12-13T03:57:05.166Z,29.30
2022-12-13T03:59:08.091Z,28.03
2022-12-13T04:01:12.920Z,26.70
2022-12-13T04:03:15.715Z,27.50
2022-12-13T04:05:18.933Z,27.57
2022-12-13T04:07:22.802Z,28.63
2022-12-13T04:09:27.013Z,26.50
2022-12-13T04:11:47.262Z,26.20
2022-12-13T04:13:49.974Z,27.97
2022-12-13T04:15:52.710Z,26.10
2022-12-13T04:17:55.588Z,27.03
2022-12-13T04:19:58.542Z,28.33
2022-12-13T04:22:01.280Z,27.23
2022-12-13T04:24:04.611Z,26.93
2022-12-13T04:26:08.960Z,27.63
2022-12-13T04:28:12.142Z,26.70
2022-12-13T04:30:24.755Z,26.63
2022-12-13T04:32:27.726Z,28.23
2022-12-13T04:34:36.526Z,26.27
2022-12-13T04:36:40.316Z,25.83
2022-12-13T04:38:43.053Z,26.83
2022-12-13T04:40:45.984Z,26.97
2022-12-13T04:42:54.377Z,26.63
2022-12-13T04:44:57.414Z,25.57
2022-12-13T04:47:01.340Z,25.90
2022-12-13T04:49:04.483Z,26.43
2022-12-13T04:51:07.393Z,26.87
2022-12-13T04:53:15.411Z,26.30
2022-12-13T04:55:18.315Z,27.00
2022-12-13T04:57:21.230Z,26.03
2022-12-13T04:59:26.921Z,25.80
2022-12-13T05:01:29.641Z,24.80
2022-12-13T05:03:32.435Z,24.17
2022-12-13T05:05:35.131Z,25.07
2022-12-13T05:07:42.128Z,26.43
2022-12-13T05:09:45.555Z,26.47
2022-12-13T05:11:48.234Z,27.50
2022-12-13T05:13:51.105Z,25.17
2022-12-13T05:15:58.693Z,26.87
2022-12-13T05:18:10.751Z,27.13
2022-12-13T05:20:14.271Z,27.07
2022-12-13T05:22:20.415Z,25.77
2022-12-13T05:24:24.017Z,27.13
2022-12-13T05:26:26.838Z,27.33
2022-12-13T05:28:32.574Z,28.37
2022-12-13T05:30:35.528Z,27.33
2022-12-13T05:32:44.165Z,28.27
2022-12-13T05:34:47.571Z,29.47
2022-12-13T05:36:50.822Z,30.40
2022-12-13T05:38:54.209Z,32.50
2022-12-13T05:40:56.974Z,29.40
2022-12-13T05:43:00.689Z,30.83
2022-12-13T05:45:05.175Z,34.37
2022-12-13T05:47:07.954Z,31.10
2022-12-13T05:49:11.976Z,31.80
2022-12-13T05:51:14.707Z,28.77
2022-12-13T05:53:30.367Z,29.37
2022-12-13T05:55:34.174Z,29.57
2022-12-13T05:57:36.900Z,28.40
2022-12-13T05:59:39.789Z,38.90
2022-12-13T06:01:43.598Z,62.43
2022-12-13T06:03:47.247Z,33.00
2022-12-13T06:05:51.655Z,26.97
2022-12-13T06:07:57.486Z,27.53
2022-12-13T06:10:09.776Z,28.00
2022-12-13T06:12:31.497Z,28.93
2022-12-13T06:14:35.126Z,28.67
2022-12-13T06:16:39.070Z,29.77
2022-12-13T06:18:42.028Z,31.80
2022-12-13T06:20:44.879Z,28.23
2022-12-13T06:22:49.091Z,39.13
2022-12-13T06:24:51.976Z,29.07
2022-12-13T06:26:54.985Z,28.57
2022-12-13T06:28:57.701Z,34.60
2022-12-13T06:31:01.412Z,30.90
2022-12-13T06:33:04.178Z,29.10
2022-12-13T06:35:28.657Z,27.33
2022-12-13T06:37:30.417Z,26.93
2022-12-13T06:39:34.893Z,26.13
2022-12-13T06:41:37.911Z,27.87
2022-12-13T06:43:43.769Z,26.77
2022-12-13T06:45:46.622Z,26.83
2022-12-13T06:47:49.407Z,27.97
2022-12-13T06:49:52.167Z,29.13
2022-12-13T06:51:54.904Z,27.70
2022-12-13T06:53:57.595Z,28.87
2022-12-13T06:56:06.677Z,28.70
2022-12-13T06:58:09.342Z,29.70
2022-12-13T07:00:13.152Z,29.20
2022-12-13T07:02:25.775Z,29.33
2022-12-13T07:04:30.974Z,28.20
2022-12-13T07:06:34.155Z,27.23
2022-12-13T07:08:37.208Z,27.97
2022-12-13T07:10:41.147Z,27.33
2022-12-13T07:12:45.382Z,25.83
2022-12-13T07:14:48.135Z,25.57
2022-12-13T07:16:50.850Z,26.40
2022-12-13T07:19:00.865Z,26.53
2022-12-13T07:21:05.496Z,27.57
2022-12-13T07:23:08.340Z,28.20
2022-12-13T07:25:28.004Z,27.53
2022-12-13T07:27:31.467Z,28.67
2022-12-13T07:29:35.522Z,29.47
2022-12-13T07:31:38.389Z,28.63
2022-12-13T07:33:41.476Z,27.53
2022-12-13T07:35:44.927Z,27.43
2022-12-13T07:37:47.590Z,27.53
2022-12-13T07:39:50.571Z,26.83
2022-12-13T07:41:55.003Z,31.43
2022-12-13T07:43:58.635Z,26.00
2022-12-13T07:46:04.501Z,27.73
2022-12-13T07:48:08.491Z,26.60
2022-12-13T07:50:24.139Z,26.33
2022-12-13T07:52:28.039Z,23.37
2022-12-13T07:54:30.739Z,25.47
2022-12-13T07:56:33.636Z,24.33
2022-12-13T07:58:37.151Z,23.90
2022-12-13T08:00:40.785Z,25.13
2022-12-13T08:02:50.311Z,25.07
2022-12-13T08:04:54.666Z,24.47
2022-12-13T08:06:57.926Z,23.87
2022-12-13T08:09:00.640Z,24.23
2022-12-13T08:11:03.877Z,23.77
2022-12-13T08:13:07.179Z,24.83
2022-12-13T08:15:13.894Z,23.40
2022-12-13T08:17:17.360Z,24.70
2022-12-13T08:19:21.384Z,25.00
2022-12-13T08:21:52.436Z,24.20
2022-12-13T08:23:47.309Z,26.53
2022-12-13T08:25:52.747Z,23.20
2022-12-13T08:27:55.430Z,25.80
2022-12-13T08:30:05.440Z,24.93
2022-12-13T08:32:10.099Z,28.37
2022-12-13T08:34:12.775Z,26.77
2022-12-13T08:36:18.842Z,24.10
2022-12-13T08:38:22.924Z,23.23
2022-12-13T08:40:25.909Z,21.80
2022-12-13T08:42:28.911Z,22.67
2022-12-13T08:44:31.639Z,23.07
2022-12-13T08:46:34.447Z,22.30
2022-12-13T08:48:37.358Z,22.07
2022-12-13T08:50:47.572Z,22.07
2022-12-13T08:52:52.747Z,25.13
2022-12-13T08:54:55.436Z,23.67
2022-12-13T08:56:59.209Z,23.00
2022-12-13T08:59:02.156Z,22.73
2022-12-13T09:01:07.463Z,23.90
2022-12-13T09:03:10.567Z,22.10
2022-12-13T09:05:32.362Z,24.03
2022-12-13T09:07:39.382Z,23.10
2022-12-13T09:09:43.391Z,21.33
2022-12-13T09:11:46.147Z,24.60
2022-12-13T09:13:49.588Z,23.70
2022-12-13T09:15:52.626Z,23.07
2022-12-13T09:17:55.612Z,23.43
2022-12-13T09:20:28.827Z,22.23
2022-12-13T09:22:33.291Z,23.63
2022-12-13T09:24:37.179Z,22.73
2022-12-13T09:26:41.491Z,24.87
2022-12-13T09:28:44.407Z,23.97
2022-12-13T09:30:47.417Z,24.00
2022-12-13T09:32:50.502Z,23.43
2022-12-13T09:34:53.504Z,22.97
2022-12-13T09:36:56.259Z,23.93
2022-12-13T09:39:05.508Z,23.10
2022-12-13T09:41:19.607Z,23.80
2022-12-13T09:43:31.877Z,23.97
2022-12-13T09:45:42.967Z,24.73
2022-12-13T09:47:47.946Z,24.27
2022-12-13T09:49:53.193Z,24.47
2022-12-13T09:52:10.742Z,26.17
2022-12-13T09:54:19.810Z,25.83
2022-12-13T09:56:24.342Z,25.47
2022-12-13T09:58:31.703Z,25.80
2022-12-13T10:00:36.659Z,24.60
2022-12-13T10:02:45.462Z,26.80
2022-12-13T10:04:48.434Z,26.13
2022-12-13T10:06:54.076Z,25.77
2022-12-13T10:09:00.342Z,25.00
2022-12-13T10:11:03.481Z,25.37
2022-12-13T10:13:16.257Z,25.37
2022-12-13T10:15:22.742Z,26.63
2022-12-13T10:17:29.692Z,26.27
2022-12-13T10:19:42.586Z,26.27
2022-12-13T10:21:48.471Z,24.67
2022-12-13T10:26:23.813Z,25.67
2022-12-13T10:28:30.216Z,25.50
2022-12-13T10:30:42.360Z,26.33
2022-12-13T10:32:54.852Z,24.73
2022-12-13T10:34:57.953Z,25.70
2022-12-13T10:37:02.175Z,26.17
2022-12-13T10:39:05.608Z,24.60
2022-12-13T10:41:29.909Z,25.93
2022-12-13T10:43:33.909Z,26.13
2022-12-13T10:45:38.175Z,24.87
2022-12-13T10:47:44.279Z,24.97
2022-12-13T10:49:59.146Z,25.20
2022-12-13T10:52:02.942Z,24.33
2022-12-13T10:54:06.543Z,25.03
2022-12-13T10:56:09.654Z,26.93
2022-12-13T10:58:20.785Z,25.17
2022-12-13T11:00:41.137Z,27.57
2022-12-13T11:02:55.928Z,24.93
2022-12-13T11:04:59.775Z,24.30
2022-12-13T11:07:21.866Z,24.77
2022-12-13T11:09:38.872Z,24.83
2022-12-13T11:11:42.499Z,24.37
2022-12-13T11:13:48.237Z,24.10
2022-12-13T11:15:56.653Z,24.63
2022-12-13T11:18:01.052Z,22.83
2022-12-13T11:20:07.726Z,23.10
2022-12-13T11:22:19.684Z,25.60
2022-12-13T11:24:25.824Z,26.57
2022-12-13T11:26:29.400Z,24.53
2022-12-13T11:28:50.521Z,23.93
2022-12-13T11:31:05.625Z,23.70
2022-12-13T11:33:19.197Z,24.00
2022-12-13T11:35:27.126Z,24.30
2022-12-13T11:37:34.429Z,24.03
2022-12-13T11:39:39.998Z,24.20
2022-12-13T11:41:50.125Z,25.13
2022-12-13T11:43:57.846Z,24.63
2022-12-13T11:46:07.133Z,24.43
2022-12-13T11:48:18.866Z,24.33
2022-12-13T11:50:33.127Z,23.47
2022-12-13T11:52:41.976Z,23.53
2022-12-13T11:54:52.301Z,24.00
2022-12-13T11:57:00.281Z,25.03
2022-12-13T11:59:20.728Z,24.33
2022-12-13T12:01:38.221Z,24.70
2022-12-13T12:03:45.774Z,23.67
2022-12-13T12:05:55.982Z,23.20
2022-12-13T12:08:43.117Z,23.87
2022-12-13T12:10:34.290Z,23.77
2022-12-13T12:12:38.950Z,23.60
2022-12-13T12:14:47.362Z,22.10
2022-12-13T12:16:58.852Z,24.30
2022-12-13T12:19:02.067Z,23.13
2022-12-13T12:21:16.424Z,23.20
2022-12-13T12:23:29.491Z,22.57
2022-12-13T12:25:43.139Z,20.63
2022-12-13T12:27:52.210Z,19.57
2022-12-13T12:30:09.300Z,21.27
2022-12-13T12:32:20.994Z,21.10
2022-12-13T12:34:35.565Z,19.80
2022-12-13T12:36:55.424Z,20.67
2022-12-13T12:39:16.196Z,20.80
2022-12-13T12:41:29.569Z,20.70
2022-12-13T12:43:35.230Z,21.13
2022-12-13T12:45:56.946Z,20.03
2022-12-13T12:50:45.795Z,20.03
2022-12-13T12:53:00.771Z,20.40
2022-12-13T12:55:12.482Z,20.30
2022-12-13T12:57:21.864Z,19.40
2022-12-13T12:59:32.699Z,20.23
2022-12-13T13:01:52.713Z,22.63
2022-12-13T13:04:01.475Z,21.57
2022-12-13T13:06:10.627Z,23.27
2022-12-13T13:08:18.766Z,23.37
2022-12-13T13:10:26.193Z,23.57
2022-12-13T13:12:32.323Z,22.87
2022-12-13T13:14:36.515Z,23.27
2022-12-13T13:16:40.998Z,25.60
2022-12-13T13:18:49.810Z,23.97
2022-12-13T13:21:45.566Z,25.13
2022-12-13T13:23:50.278Z,24.23
2022-12-13T13:28:22.989Z,23.87
2022-12-13T13:30:27.206Z,24.20
2022-12-13T13:32:32.316Z,23.00
2022-12-13T13:34:36.309Z,23.43
2022-12-13T13:36:47.824Z,23.57
2022-12-13T13:38:54.046Z,23.60
2022-12-13T13:40:56.809Z,23.20
2022-12-13T13:43:08.346Z,24.00
2022-12-13T13:45:22.555Z,23.27
2022-12-13T13:47:38.813Z,24.07
2022-12-13T13:49:59.955Z,23.07
2022-12-13T13:52:25.198Z,23.30
2022-12-13T13:55:01.102Z,23.50
2022-12-13T13:58:08.675Z,23.63
2022-12-13T14:00:21.403Z,23.97
2022-12-13T14:02:47.618Z,24.77
2022-12-13T14:05:34.807Z,24.33
2022-12-13T14:08:20.361Z,23.57
2022-12-13T14:10:37.150Z,23.60
2022-12-13T14:13:29.359Z,23.03
2022-12-13T14:16:04.779Z,24.70
2022-12-13T14:18:41.531Z,25.00
2022-12-13T14:20:55.753Z,23.67
2022-12-13T14:23:05.579Z,24.17
2022-12-13T14:25:46.438Z,24.70
2022-12-13T14:28:01.355Z,25.53
2022-12-13T14:30:26.638Z,24.00
2022-12-13T14:32:30.055Z,23.70
2022-12-13T14:34:35.008Z,25.53
2022-12-13T14:36:39.030Z,23.73
2022-12-13T14:38:41.722Z,23.47
2022-12-13T14:40:50.996Z,24.13
2022-12-13T14:42:55.819Z,25.90
2022-12-13T14:45:14.418Z,25.10
2022-12-13T14:47:18.187Z,25.63
2022-12-13T14:49:22.562Z,23.83
2022-12-13T14:51:33.634Z,22.73
2022-12-13T14:53:41.181Z,24.03
2022-12-13T14:56:06.342Z,25.10
2022-12-13T14:58:23.202Z,24.57
2022-12-13T15:00:29.715Z,22.23
2022-12-13T15:02:34.535Z,24.13
2022-12-13T15:04:37.741Z,23.30
2022-12-13T15:06:40.910Z,25.53
2022-12-13T15:08:51.396Z,24.43
2022-12-13T15:10:56.882Z,24.10
2022-12-13T15:13:00.972Z,24.70
2022-12-13T15:15:07.286Z,25.33
2022-12-13T15:17:26.456Z,27.83
2022-12-13T15:19:33.963Z,25.87
2022-12-13T15:21:39.054Z,26.90
2022-12-13T15:23:48.998Z,26.97
2022-12-13T15:25:59.136Z,26.90
2022-12-13T15:28:04.094Z,25.53
2022-12-13T15:30:10.043Z,26.03
2022-12-13T15:32:16.113Z,27.17
2022-12-13T15:34:36.712Z,26.93
2022-12-13T15:36:39.803Z,25.87
2022-12-13T15:38:51.516Z,25.83
2022-12-13T15:40:54.598Z,26.93
2022-12-13T15:42:58.302Z,27.43
2022-12-13T15:45:04.649Z,26.73
2022-12-13T15:47:12.692Z,26.83
2022-12-13T15:49:34.982Z,30.07
2022-12-13T15:51:54.977Z,28.53
2022-12-13T15:54:07.240Z,28.47
2022-12-13T15:56:33.396Z,31.40
2022-12-13T15:58:37.259Z,30.07
2022-12-13T16:00:49.777Z,32.13
2022-12-13T16:02:56.821Z,31.37
2022-12-13T16:05:08.089Z,31.60
2022-12-13T16:07:23.300Z,31.17
2022-12-13T16:09:29.247Z,30.70
2022-12-13T16:11:35.017Z,32.80
2022-12-13T16:13:39.707Z,31.10
2022-12-13T16:15:59.736Z,32.80
2022-12-13T16:18:12.971Z,30.67
2022-12-13T16:20:17.588Z,30.57
2022-12-13T16:22:23.485Z,31.97
2022-12-13T16:24:26.327Z,30.27
2022-12-13T16:26:31.093Z,29.30
2022-12-13T16:28:33.857Z,31.13
2022-12-13T16:31:10.188Z,32.13
2022-12-13T16:33:27.022Z,31.93
2022-12-13T16:35:32.525Z,34.27
2022-12-13T16:37:35.259Z,34.77
2022-12-13T16:39:38.170Z,33.60
2022-12-13T16:41:44.394Z,32.63
2022-12-13T16:43:57.054Z,34.60
2022-12-13T16:47:17.955Z,31.73
2022-12-13T16:48:29.300Z,31.83
2022-12-13T16:50:32.709Z,31.30
2022-12-13T16:52:36.228Z,33.60
2022-12-13T16:54:39.250Z,32.67
2022-12-13T16:56:42.224Z,76.23
2022-12-13T16:58:49.919Z,44.93
2022-12-13T17:00:58.894Z,37.43
2022-12-13T17:03:04.209Z,37.53
2022-12-13T17:05:07.530Z,33.60
2022-12-13T17:07:10.528Z,38.33
2022-12-13T17:09:14.133Z,34.37
2022-12-13T17:11:18.435Z,32.97
2022-12-13T17:13:21.693Z,33.80
2022-12-13T17:15:24.731Z,32.60
2022-12-13T17:17:27.830Z,31.47
2022-12-13T17:19:32.717Z,30.10
2022-12-13T17:21:37.003Z,30.37
2022-12-13T17:23:40.794Z,28.27
2022-12-13T17:25:43.888Z,32.60
2022-12-13T17:27:47.026Z,32.90
2022-12-13T17:29:50.029Z,31.20
2022-12-13T17:31:53.118Z,36.90
2022-12-13T17:33:58.342Z,40.53
2022-12-13T17:36:04.143Z,39.27
2022-12-13T17:38:06.939Z,40.20
2022-12-13T17:40:10.902Z,39.60
2022-12-13T17:42:13.752Z,41.10
2022-12-13T17:44:16.880Z,37.23
2022-12-13T17:46:20.323Z,37.13
2022-12-13T17:48:24.020Z,37.90
2022-12-13T17:50:27.943Z,35.40
2022-12-13T17:52:32.456Z,36.60
2022-12-13T17:54:35.230Z,36.10
2022-12-13T17:56:38.061Z,36.10
2022-12-13T17:58:40.942Z,36.07
2022-12-13T18:00:43.790Z,34.77
2022-12-13T18:02:55.078Z,34.17
2022-12-13T18:04:58.583Z,32.43
2022-12-13T18:07:01.505Z,34.30
2022-12-13T18:09:05.800Z,32.00
2022-12-13T18:13:34.160Z,31.57
2022-12-13T18:15:37.173Z,30.57
2022-12-13T18:18:10.234Z,31.07
2022-12-13T18:20:03.191Z,30.47
2022-12-13T18:22:05.987Z,29.60
2022-12-13T18:24:11.055Z,32.53
2022-12-13T18:26:16.925Z,32.03
2022-12-13T18:28:19.838Z,34.80
2022-12-13T18:30:23.599Z,33.73
2022-12-13T18:32:26.368Z,34.33
2022-12-13T18:34:29.482Z,40.83
2022-12-13T18:36:32.313Z,35.47
2022-12-13T18:38:37.327Z,34.87
2022-12-13T18:40:42.069Z,35.30
2022-12-13T18:42:46.478Z,34.90
2022-12-13T18:44:50.874Z,38.80
2022-12-13T18:46:57.794Z,42.73
2022-12-13T18:49:00.798Z,42.03
2022-12-13T18:51:06.370Z,41.23
2022-12-13T18:53:09.528Z,38.37
2022-12-13T18:55:12.484Z,37.17
2022-12-13T18:57:16.672Z,35.17
2022-12-13T18:59:19.617Z,35.63
2022-12-13T19:01:26.593Z,35.03
2022-12-13T19:03:30.467Z,37.13
2022-12-13T19:05:34.152Z,35.93
2022-12-13T19:07:37.139Z,32.80
2022-12-13T19:09:40.310Z,33.03
2022-12-13T19:11:43.520Z,32.37
2022-12-13T19:13:48.937Z,34.27
2022-12-13T19:15:52.365Z,33.33
2022-12-13T19:17:55.737Z,31.53
2022-12-13T19:19:58.981Z,34.53
2022-12-13T19:22:01.833Z,32.90
2022-12-13T19:24:06.480Z,33.37
2022-12-13T19:26:10.668Z,32.10
2022-12-13T19:28:14.419Z,32.57
2022-12-13T19:30:23.042Z,35.23
2022-12-13T19:32:26.211Z,37.53
2022-12-13T19:34:29.317Z,35.90
2022-12-13T19:36:32.787Z,34.30
2022-12-13T19:38:36.071Z,34.70
2022-12-13T19:40:40.661Z,36.07
2022-12-13T19:42:43.661Z,36.57
2022-12-13T19:44:49.911Z,37.30
2022-12-13T19:46:55.864Z,33.37
2022-12-13T19:48:58.983Z,36.80
2022-12-13T19:51:05.240Z,37.53
2022-12-13T19:53:11.619Z,37.13
2022-12-13T19:55:14.632Z,36.70
2022-12-13T19:57:22.941Z,36.60
2022-12-13T19:59:28.903Z,35.37
2022-12-13T20:01:33.032Z,34.10
2022-12-13T20:03:39.554Z,33.00
2022-12-13T20:05:45.764Z,33.70
2022-12-13T20:07:49.902Z,32.73
2022-12-13T20:09:52.860Z,34.83
2022-12-13T20:12:00.331Z,33.03
2022-12-13T20:14:06.002Z,33.33
2022-12-13T20:16:17.185Z,35.10
2022-12-13T20:18:20.348Z,36.23
2022-12-13T20:20:47.215Z,35.97
2022-12-13T20:22:52.276Z,34.70
2022-12-13T20:24:58.530Z,33.90
2022-12-13T20:27:02.355Z,33.17
2022-12-13T20:29:06.302Z,31.70
2022-12-13T20:31:12.413Z,32.27
2022-12-13T20:33:15.497Z,32.03
2022-12-13T20:35:18.804Z,31.63
2022-12-13T20:37:23.608Z,29.47
2022-12-13T20:39:26.451Z,30.90
2022-12-13T20:41:33.153Z,29.53
2022-12-13T20:43:36.433Z,29.00
2022-12-13T20:45:39.233Z,29.20
2022-12-13T20:47:42.180Z,29.47
2022-12-13T20:49:44.879Z,29.37
2022-12-13T20:51:51.650Z,31.20
2022-12-13T20:53:56.992Z,30.87
2022-12-13T20:56:00.836Z,31.17
2022-12-13T20:58:03.930Z,32.63
2022-12-13T21:00:11.471Z,33.17
2022-12-13T21:02:17.766Z,32.10
2022-12-13T21:04:21.440Z,34.33
2022-12-13T21:06:24.402Z,33.43
2022-12-13T21:08:45.291Z,33.70
2022-12-13T21:10:49.898Z,32.70
2022-12-13T21:12:54.457Z,33.17
2022-12-13T21:14:57.150Z,37.50
2022-12-13T21:17:04.683Z,34.00
2022-12-13T21:19:10.007Z,34.80
2022-12-13T21:21:16.717Z,34.40
2022-12-13T21:23:25.233Z,32.17
2022-12-13T21:25:28.684Z,32.73
2022-12-13T21:27:34.925Z,30.13
2022-12-13T21:29:41.523Z,29.60
2022-12-13T21:31:48.886Z,35.53
2022-12-13T21:33:56.701Z,38.60
2022-12-13T21:36:10.856Z,29.83
2022-12-13T21:38:13.598Z,30.40
2022-12-13T21:40:16.682Z,27.07
2022-12-13T21:42:21.971Z,25.27
2022-12-13T21:44:27.059Z,27.03
2022-12-13T21:47:10.894Z,26.03
2022-12-13T21:49:01.546Z,27.30
2022-12-13T21:51:07.481Z,25.77
2022-12-13T21:53:10.405Z,25.40
2022-12-13T21:55:38.409Z,25.53
2022-12-13T21:57:53.845Z,24.83
2022-12-13T21:59:57.863Z,24.87
2022-12-13T22:02:15.557Z,25.03
2022-12-13T22:04:19.529Z,26.20
2022-12-13T22:06:22.620Z,26.23
2022-12-13T22:08:25.744Z,35.77
2022-12-13T22:10:28.685Z,30.57
2022-12-13T22:12:35.559Z,26.50
2022-12-13T22:14:38.535Z,38.80
2022-12-13T22:16:42.704Z,39.77
2022-12-13T22:18:54.240Z,29.67
2022-12-13T22:20:57.450Z,33.30
2022-12-13T22:23:00.919Z,45.73
2022-12-13T22:25:03.655Z,25.87
2022-12-13T22:27:06.999Z,41.47
2022-12-13T22:29:15.575Z,91.00
2022-12-13T22:31:26.710Z,51.00
2022-12-13T22:33:34.300Z,109.00
2022-12-13T22:35:38.870Z,72.13
2022-12-13T22:37:41.604Z,24.37
2022-12-13T22:39:48.406Z,29.73
2022-12-13T22:41:53.545Z,25.00
2022-12-13T22:43:58.498Z,28.03
2022-12-13T22:46:04.975Z,35.37
2022-12-13T22:48:10.498Z,27.73
2022-12-13T22:50:21.449Z,33.23
2022-12-13T22:52:33.447Z,26.90
2022-12-13T22:54:36.642Z,31.57
2022-12-13T22:56:39.747Z,40.60
2022-12-13T22:58:43.151Z,26.77
2022-12-13T23:00:45.967Z,26.33
2022-12-13T23:02:49.070Z,27.37
2022-12-13T23:04:51.789Z,29.53
2022-12-13T23:06:56.021Z,25.23
2022-12-13T23:09:00.123Z,27.93
2022-12-13T23:11:23.815Z,25.57
2022-12-13T23:13:28.887Z,24.47
2022-12-13T23:15:32.073Z,23.70
2022-12-13T23:17:37.720Z,22.80
2022-12-13T23:19:50.703Z,26.20
2022-12-13T23:22:01.377Z,24.80
2022-12-13T23:24:07.681Z,23.03
2022-12-13T23:26:12.514Z,24.00
2022-12-13T23:28:15.887Z,23.90
2022-12-13T23:30:21.670Z,22.37
2022-12-13T23:32:24.411Z,22.10
2022-12-13T23:34:27.715Z,23.63
2022-12-13T23:36:30.677Z,24.47
2022-12-13T23:38:35.693Z,23.77
2022-12-13T23:40:38.412Z,24.23
2022-12-13T23:42:41.185Z,23.50
2022-12-13T23:44:43.915Z,22.97
2022-12-13T23:46:48.608Z,24.40
2022-12-13T23:48:54.545Z,22.73
2022-12-13T23:50:57.905Z,29.90
2022-12-13T23:53:01.402Z,27.53
2022-12-13T23:55:07.338Z,24.97
2022-12-13T23:57:10.366Z,25.20
2022-12-13T23:59:13.549Z,24.00
